sensor_id;sensor_type;location;lat;lon;timestamp;temperature;humidity
78325;DHT22;67584;51.400;6.692;2023-04-15T00:00:37;6.70;72.90
78325;DHT22;67584;51.400;6.692;2023-04-15T00:03:03;6.70;73.70
78325;DHT22;67584;51.400;6.692;2023-04-15T00:05:30;6.70;73.30
78325;DHT22;67584;51.400;6.692;2023-04-15T00:07:56;6.60;73.30
78325;DHT22;67584;51.400;6.692;2023-04-15T00:10:24;6.70;73.30
78325;DHT22;67584;51.400;6.692;2023-04-15T00:12:50;6.60;73.50
78325;DHT22;67584;51.400;6.692;2023-04-15T00:15:16;6.50;73.40
78325;DHT22;67584;51.400;6.692;2023-04-15T00:17:42;6.50;73.60
78325;DHT22;67584;51.400;6.692;2023-04-15T00:20:08;6.40;73.60
78325;DHT22;67584;51.400;6.692;2023-04-15T00:22:34;6.40;74.20
78325;DHT22;67584;51.400;6.692;2023-04-15T00:25:00;6.20;74.10
78325;DHT22;67584;51.400;6.692;2023-04-15T00:27:26;6.20;74.40
78325;DHT22;67584;51.400;6.692;2023-04-15T00:29:52;6.40;74.10
78325;DHT22;67584;51.400;6.692;2023-04-15T00:32:18;6.40;74.50
78325;DHT22;67584;51.400;6.692;2023-04-15T00:34:44;6.30;74.50
78325;DHT22;67584;51.400;6.692;2023-04-15T00:37:10;6.40;74.80
78325;DHT22;67584;51.400;6.692;2023-04-15T00:39:37;6.40;74.90
78325;DHT22;67584;51.400;6.692;2023-04-15T00:42:05;6.40;74.80
78325;DHT22;67584;51.400;6.692;2023-04-15T00:44:31;6.00;75.00
78325;DHT22;67584;51.400;6.692;2023-04-15T00:47:00;5.80;75.50
78325;DHT22;67584;51.400;6.692;2023-04-15T00:49:28;6.10;75.30
78325;DHT22;67584;51.400;6.692;2023-04-15T00:51:54;6.10;75.10
78325;DHT22;67584;51.400;6.692;2023-04-15T00:54:20;6.00;75.10
78325;DHT22;67584;51.400;6.692;2023-04-15T00:56:46;6.30;75.20
78325;DHT22;67584;51.400;6.692;2023-04-15T00:59:12;6.30;75.10
78325;DHT22;67584;51.400;6.692;2023-04-15T01:01:39;6.20;75.10
78325;DHT22;67584;51.400;6.692;2023-04-15T01:04:06;6.20;75.40
78325;DHT22;67584;51.400;6.692;2023-04-15T01:06:34;5.90;75.40
78325;DHT22;67584;51.400;6.692;2023-04-15T01:09:00;6.10;75.50
78325;DHT22;67584;51.400;6.692;2023-04-15T01:11:26;6.00;76.00
78325;DHT22;67584;51.400;6.692;2023-04-15T01:13:52;6.00;76.30
78325;DHT22;67584;51.400;6.692;2023-04-15T01:16:20;5.90;76.40
78325;DHT22;67584;51.400;6.692;2023-04-15T01:18:45;5.90;76.90
78325;DHT22;67584;51.400;6.692;2023-04-15T01:21:11;5.80;76.50
78325;DHT22;67584;51.400;6.692;2023-04-15T01:23:37;5.60;76.20
78325;DHT22;67584;51.400;6.692;2023-04-15T01:26:05;5.50;76.50
78325;DHT22;67584;51.400;6.692;2023-04-15T01:28:32;5.90;76.50
78325;DHT22;67584;51.400;6.692;2023-04-15T01:31:18;5.60;76.20
78325;DHT22;67584;51.400;6.692;2023-04-15T01:33:44;5.50;77.10
78325;DHT22;67584;51.400;6.692;2023-04-15T01:36:13;5.60;76.80
78325;DHT22;67584;51.400;6.692;2023-04-15T01:38:39;5.40;77.30
78325;DHT22;67584;51.400;6.692;2023-04-15T01:41:05;5.50;77.90
78325;DHT22;67584;51.400;6.692;2023-04-15T01:43:35;5.30;77.50
78325;DHT22;67584;51.400;6.692;2023-04-15T01:46:01;5.30;77.60
78325;DHT22;67584;51.400;6.692;2023-04-15T01:48:27;5.30;79.40
78325;DHT22;67584;51.400;6.692;2023-04-15T01:50:54;5.10;78.50
78325;DHT22;67584;51.400;6.692;2023-04-15T01:53:21;5.20;79.40
78325;DHT22;67584;51.400;6.692;2023-04-15T01:55:47;5.20;78.70
78325;DHT22;67584;51.400;6.692;2023-04-15T01:58:13;5.20;79.70
78325;DHT22;67584;51.400;6.692;2023-04-15T02:00:39;5.00;80.30
78325;DHT22;67584;51.400;6.692;2023-04-15T02:03:05;5.10;80.90
78325;DHT22;67584;51.400;6.692;2023-04-15T02:05:31;5.00;80.70
78325;DHT22;67584;51.400;6.692;2023-04-15T02:07:57;5.30;81.00
78325;DHT22;67584;51.400;6.692;2023-04-15T02:10:22;5.00;81.10
78325;DHT22;67584;51.400;6.692;2023-04-15T02:12:48;5.00;80.90
78325;DHT22;67584;51.400;6.692;2023-04-15T02:15:14;5.00;81.50
78325;DHT22;67584;51.400;6.692;2023-04-15T02:17:40;5.00;81.70
78325;DHT22;67584;51.400;6.692;2023-04-15T02:20:10;5.10;81.70
78325;DHT22;67584;51.400;6.692;2023-04-15T02:22:36;5.10;81.50
78325;DHT22;67584;51.400;6.692;2023-04-15T02:25:02;5.00;81.70
78325;DHT22;67584;51.400;6.692;2023-04-15T02:27:28;5.30;81.50
78325;DHT22;67584;51.400;6.692;2023-04-15T02:29:54;5.20;81.40
78325;DHT22;67584;51.400;6.692;2023-04-15T02:32:20;5.10;81.60
78325;DHT22;67584;51.400;6.692;2023-04-15T02:34:48;5.20;81.80
78325;DHT22;67584;51.400;6.692;2023-04-15T02:37:14;5.20;81.80
78325;DHT22;67584;51.400;6.692;2023-04-15T02:39:40;5.30;81.40
78325;DHT22;67584;51.400;6.692;2023-04-15T02:42:06;5.40;81.20
78325;DHT22;67584;51.400;6.692;2023-04-15T02:44:32;5.50;81.10
78325;DHT22;67584;51.400;6.692;2023-04-15T02:47:01;5.20;81.40
78325;DHT22;67584;51.400;6.692;2023-04-15T02:49:28;5.30;81.30
78325;DHT22;67584;51.400;6.692;2023-04-15T02:51:55;5.30;82.10
78325;DHT22;67584;51.400;6.692;2023-04-15T02:54:23;5.20;82.40
78325;DHT22;67584;51.400;6.692;2023-04-15T02:56:49;5.00;82.60
78325;DHT22;67584;51.400;6.692;2023-04-15T02:59:15;5.10;82.70
78325;DHT22;67584;51.400;6.692;2023-04-15T03:01:41;4.90;82.50
78325;DHT22;67584;51.400;6.692;2023-04-15T03:04:07;4.80;82.70
78325;DHT22;67584;51.400;6.692;2023-04-15T03:06:34;4.60;82.80
78325;DHT22;67584;51.400;6.692;2023-04-15T03:08:59;4.70;82.80
78325;DHT22;67584;51.400;6.692;2023-04-15T03:11:29;4.30;82.90
78325;DHT22;67584;51.400;6.692;2023-04-15T03:13:56;4.40;84.20
78325;DHT22;67584;51.400;6.692;2023-04-15T03:16:28;4.50;84.60
78325;DHT22;67584;51.400;6.692;2023-04-15T03:18:54;4.70;84.30
78325;DHT22;67584;51.400;6.692;2023-04-15T03:21:21;4.60;84.10
78325;DHT22;67584;51.400;6.692;2023-04-15T03:23:48;4.50;84.30
78325;DHT22;67584;51.400;6.692;2023-04-15T03:26:26;4.50;84.40
78325;DHT22;67584;51.400;6.692;2023-04-15T03:28:51;4.70;85.00
78325;DHT22;67584;51.400;6.692;2023-04-15T03:31:17;4.50;85.10
78325;DHT22;67584;51.400;6.692;2023-04-15T03:33:43;4.60;85.60
78325;DHT22;67584;51.400;6.692;2023-04-15T03:36:09;4.60;85.90
78325;DHT22;67584;51.400;6.692;2023-04-15T03:38:34;4.60;85.90
78325;DHT22;67584;51.400;6.692;2023-04-15T03:41:00;4.70;85.70
78325;DHT22;67584;51.400;6.692;2023-04-15T03:43:26;4.80;85.70
78325;DHT22;67584;51.400;6.692;2023-04-15T03:45:52;4.90;85.70
78325;DHT22;67584;51.400;6.692;2023-04-15T03:48:17;4.90;85.70
78325;DHT22;67584;51.400;6.692;2023-04-15T03:50:43;5.00;85.40
78325;DHT22;67584;51.400;6.692;2023-04-15T03:53:09;4.90;85.30
78325;DHT22;67584;51.400;6.692;2023-04-15T03:55:35;4.70;85.60
78325;DHT22;67584;51.400;6.692;2023-04-15T03:58:01;4.80;86.10
78325;DHT22;67584;51.400;6.692;2023-04-15T04:00:27;4.80;85.90
78325;DHT22;67584;51.400;6.692;2023-04-15T04:02:52;4.60;86.00
78325;DHT22;67584;51.400;6.692;2023-04-15T04:05:18;4.80;86.10
78325;DHT22;67584;51.400;6.692;2023-04-15T04:07:43;4.60;86.40
78325;DHT22;67584;51.400;6.692;2023-04-15T04:10:09;4.70;86.10
78325;DHT22;67584;51.400;6.692;2023-04-15T04:12:35;4.70;86.10
78325;DHT22;67584;51.400;6.692;2023-04-15T04:15:00;4.70;86.10
78325;DHT22;67584;51.400;6.692;2023-04-15T04:17:26;4.70;85.90
78325;DHT22;67584;51.400;6.692;2023-04-15T04:19:52;4.60;86.30
78325;DHT22;67584;51.400;6.692;2023-04-15T04:22:21;4.70;86.60
78325;DHT22;67584;51.400;6.692;2023-04-15T04:24:48;4.80;86.40
78325;DHT22;67584;51.400;6.692;2023-04-15T04:27:14;4.80;86.20
78325;DHT22;67584;51.400;6.692;2023-04-15T04:29:39;4.90;85.90
78325;DHT22;67584;51.400;6.692;2023-04-15T04:32:06;5.00;85.80
78325;DHT22;67584;51.400;6.692;2023-04-15T04:34:31;5.10;85.60
78325;DHT22;67584;51.400;6.692;2023-04-15T04:36:57;4.90;86.10
78325;DHT22;67584;51.400;6.692;2023-04-15T04:39:23;4.70;85.90
78325;DHT22;67584;51.400;6.692;2023-04-15T04:41:49;5.20;85.40
78325;DHT22;67584;51.400;6.692;2023-04-15T04:44:14;5.20;85.10
78325;DHT22;67584;51.400;6.692;2023-04-15T04:46:40;4.90;85.10
78325;DHT22;67584;51.400;6.692;2023-04-15T04:49:06;5.20;85.20
78325;DHT22;67584;51.400;6.692;2023-04-15T04:51:32;5.10;85.00
78325;DHT22;67584;51.400;6.692;2023-04-15T04:53:57;5.30;84.90
78325;DHT22;67584;51.400;6.692;2023-04-15T04:56:23;5.40;84.40
78325;DHT22;67584;51.400;6.692;2023-04-15T04:58:49;5.50;84.20
78325;DHT22;67584;51.400;6.692;2023-04-15T05:01:14;5.70;84.00
78325;DHT22;67584;51.400;6.692;2023-04-15T05:03:40;5.50;83.90
78325;DHT22;67584;51.400;6.692;2023-04-15T05:06:06;5.70;83.80
78325;DHT22;67584;51.400;6.692;2023-04-15T05:08:33;5.80;83.90
78325;DHT22;67584;51.400;6.692;2023-04-15T05:10:59;5.60;83.80
78325;DHT22;67584;51.400;6.692;2023-04-15T05:13:25;5.70;83.80
78325;DHT22;67584;51.400;6.692;2023-04-15T05:15:50;5.70;83.90
78325;DHT22;67584;51.400;6.692;2023-04-15T05:18:16;5.60;83.70
78325;DHT22;67584;51.400;6.692;2023-04-15T05:20:42;5.80;83.40
78325;DHT22;67584;51.400;6.692;2023-04-15T05:23:07;5.90;83.40
78325;DHT22;67584;51.400;6.692;2023-04-15T05:25:33;5.90;83.40
78325;DHT22;67584;51.400;6.692;2023-04-15T05:27:59;5.80;83.40
78325;DHT22;67584;51.400;6.692;2023-04-15T05:30:25;5.90;83.50
78325;DHT22;67584;51.400;6.692;2023-04-15T05:32:51;5.90;83.30
78325;DHT22;67584;51.400;6.692;2023-04-15T05:35:17;6.00;83.10
78325;DHT22;67584;51.400;6.692;2023-04-15T05:37:42;5.90;83.30
78325;DHT22;67584;51.400;6.692;2023-04-15T05:40:08;6.10;83.10
78325;DHT22;67584;51.400;6.692;2023-04-15T05:42:35;6.00;82.90
78325;DHT22;67584;51.400;6.692;2023-04-15T05:45:01;6.20;82.70
78325;DHT22;67584;51.400;6.692;2023-04-15T05:47:30;6.20;82.70
78325;DHT22;67584;51.400;6.692;2023-04-15T05:50:01;6.40;82.30
78325;DHT22;67584;51.400;6.692;2023-04-15T05:52:27;6.50;82.20
78325;DHT22;67584;51.400;6.692;2023-04-15T05:54:53;6.70;81.90
78325;DHT22;67584;51.400;6.692;2023-04-15T05:57:19;6.80;81.60
78325;DHT22;67584;51.400;6.692;2023-04-15T05:59:45;7.00;81.20
78325;DHT22;67584;51.400;6.692;2023-04-15T06:02:11;7.20;80.70
78325;DHT22;67584;51.400;6.692;2023-04-15T06:04:38;7.20;80.10
78325;DHT22;67584;51.400;6.692;2023-04-15T06:07:03;7.30;79.80
78325;DHT22;67584;51.400;6.692;2023-04-15T06:09:29;7.50;79.60
78325;DHT22;67584;51.400;6.692;2023-04-15T06:11:55;7.60;79.40
78325;DHT22;67584;51.400;6.692;2023-04-15T06:14:22;7.80;79.10
78325;DHT22;67584;51.400;6.692;2023-04-15T06:16:47;7.70;78.70
78325;DHT22;67584;51.400;6.692;2023-04-15T06:19:13;8.10;78.20
78325;DHT22;67584;51.400;6.692;2023-04-15T06:21:39;8.10;77.90
78325;DHT22;67584;51.400;6.692;2023-04-15T06:24:05;8.20;77.80
78325;DHT22;67584;51.400;6.692;2023-04-15T06:26:30;8.20;77.80
78325;DHT22;67584;51.400;6.692;2023-04-15T06:28:56;8.40;77.70
78325;DHT22;67584;51.400;6.692;2023-04-15T06:31:22;8.30;77.50
78325;DHT22;67584;51.400;6.692;2023-04-15T06:33:47;8.50;77.30
78325;DHT22;67584;51.400;6.692;2023-04-15T06:36:13;8.60;77.20
78325;DHT22;67584;51.400;6.692;2023-04-15T06:38:39;8.70;77.10
78325;DHT22;67584;51.400;6.692;2023-04-15T06:41:05;8.80;76.80
78325;DHT22;67584;51.400;6.692;2023-04-15T06:43:31;8.90;76.30
78325;DHT22;67584;51.400;6.692;2023-04-15T06:45:56;9.10;76.20
78325;DHT22;67584;51.400;6.692;2023-04-15T06:48:23;9.40;75.50
78325;DHT22;67584;51.400;6.692;2023-04-15T06:50:49;9.50;75.00
78325;DHT22;67584;51.400;6.692;2023-04-15T06:53:15;9.70;74.60
78325;DHT22;67584;51.400;6.692;2023-04-15T06:55:40;9.90;74.10
78325;DHT22;67584;51.400;6.692;2023-04-15T06:58:06;10.10;73.80
78325;DHT22;67584;51.400;6.692;2023-04-15T07:00:32;10.20;72.90
78325;DHT22;67584;51.400;6.692;2023-04-15T07:02:59;10.30;72.70
78325;DHT22;67584;51.400;6.692;2023-04-15T07:05:29;10.30;72.60
78325;DHT22;67584;51.400;6.692;2023-04-15T07:07:55;10.40;72.40
78325;DHT22;67584;51.400;6.692;2023-04-15T07:10:21;10.60;71.90
78325;DHT22;67584;51.400;6.692;2023-04-15T07:12:47;10.90;70.30
78325;DHT22;67584;51.400;6.692;2023-04-15T07:15:13;11.00;70.70
78325;DHT22;67584;51.400;6.692;2023-04-15T07:17:40;11.10;70.10
78325;DHT22;67584;51.400;6.692;2023-04-15T07:20:08;11.30;69.00
78325;DHT22;67584;51.400;6.692;2023-04-15T07:22:33;11.70;68.80
78325;DHT22;67584;51.400;6.692;2023-04-15T07:24:59;11.90;67.20
78325;DHT22;67584;51.400;6.692;2023-04-15T07:27:25;12.00;67.00
78325;DHT22;67584;51.400;6.692;2023-04-15T07:29:51;12.00;66.80
78325;DHT22;67584;51.400;6.692;2023-04-15T07:32:18;12.20;66.40
78325;DHT22;67584;51.400;6.692;2023-04-15T07:34:44;12.30;65.70
78325;DHT22;67584;51.400;6.692;2023-04-15T07:37:10;12.50;65.20
78325;DHT22;67584;51.400;6.692;2023-04-15T07:39:35;12.80;64.10
78325;DHT22;67584;51.400;6.692;2023-04-15T07:42:02;12.90;60.60
78325;DHT22;67584;51.400;6.692;2023-04-15T07:44:28;12.80;60.40
78325;DHT22;67584;51.400;6.692;2023-04-15T07:46:55;12.90;59.70
78325;DHT22;67584;51.400;6.692;2023-04-15T07:49:21;13.10;59.20
78325;DHT22;67584;51.400;6.692;2023-04-15T07:51:47;13.30;58.80
78325;DHT22;67584;51.400;6.692;2023-04-15T07:54:14;13.30;58.60
78325;DHT22;67584;51.400;6.692;2023-04-15T07:56:40;13.10;57.70
78325;DHT22;67584;51.400;6.692;2023-04-15T07:59:05;13.10;58.30
78325;DHT22;67584;51.400;6.692;2023-04-15T08:01:31;13.10;57.40
78325;DHT22;67584;51.400;6.692;2023-04-15T08:03:58;13.20;57.30
78325;DHT22;67584;51.400;6.692;2023-04-15T08:06:24;13.00;56.80
78325;DHT22;67584;51.400;6.692;2023-04-15T08:08:49;13.00;57.60
78325;DHT22;67584;51.400;6.692;2023-04-15T08:11:15;13.30;56.80
78325;DHT22;67584;51.400;6.692;2023-04-15T08:13:41;13.20;56.40
78325;DHT22;67584;51.400;6.692;2023-04-15T08:16:17;13.30;56.40
78325;DHT22;67584;51.400;6.692;2023-04-15T08:18:44;13.50;55.80
78325;DHT22;67584;51.400;6.692;2023-04-15T08:21:10;13.70;55.10
78325;DHT22;67584;51.400;6.692;2023-04-15T08:23:36;14.00;54.10
78325;DHT22;67584;51.400;6.692;2023-04-15T08:26:05;14.00;54.70
78325;DHT22;67584;51.400;6.692;2023-04-15T08:28:33;14.10;53.90
78325;DHT22;67584;51.400;6.692;2023-04-15T08:30:59;14.30;54.10
78325;DHT22;67584;51.400;6.692;2023-04-15T08:33:25;14.70;51.60
78325;DHT22;67584;51.400;6.692;2023-04-15T08:35:50;15.00;51.60
78325;DHT22;67584;51.400;6.692;2023-04-15T08:38:16;15.40;50.10
78325;DHT22;67584;51.400;6.692;2023-04-15T08:40:44;15.30;49.40
78325;DHT22;67584;51.400;6.692;2023-04-15T08:43:14;15.20;49.20
78325;DHT22;67584;51.400;6.692;2023-04-15T08:45:43;15.40;49.60
78325;DHT22;67584;51.400;6.692;2023-04-15T08:48:16;15.40;49.40
78325;DHT22;67584;51.400;6.692;2023-04-15T08:50:42;15.20;49.70
78325;DHT22;67584;51.400;6.692;2023-04-15T08:53:08;15.40;49.10
78325;DHT22;67584;51.400;6.692;2023-04-15T08:55:35;15.40;50.40
78325;DHT22;67584;51.400;6.692;2023-04-15T08:58:05;15.30;50.00
78325;DHT22;67584;51.400;6.692;2023-04-15T09:00:31;15.20;51.20
78325;DHT22;67584;51.400;6.692;2023-04-15T09:02:58;15.40;51.20
78325;DHT22;67584;51.400;6.692;2023-04-15T09:05:24;15.40;49.20
78325;DHT22;67584;51.400;6.692;2023-04-15T09:07:50;15.70;50.00
78325;DHT22;67584;51.400;6.692;2023-04-15T09:10:16;15.80;49.50
78325;DHT22;67584;51.400;6.692;2023-04-15T09:12:42;16.00;48.70
78325;DHT22;67584;51.400;6.692;2023-04-15T09:15:10;16.10;48.10
78325;DHT22;67584;51.400;6.692;2023-04-15T09:17:42;16.20;47.70
78325;DHT22;67584;51.400;6.692;2023-04-15T09:20:10;16.40;47.00
78325;DHT22;67584;51.400;6.692;2023-04-15T09:22:36;16.30;47.00
78325;DHT22;67584;51.400;6.692;2023-04-15T09:25:02;16.20;48.30
78325;DHT22;67584;51.400;6.692;2023-04-15T09:27:28;16.10;47.80
78325;DHT22;67584;51.400;6.692;2023-04-15T09:29:54;16.30;47.40
78325;DHT22;67584;51.400;6.692;2023-04-15T09:32:20;16.30;47.90
78325;DHT22;67584;51.400;6.692;2023-04-15T09:34:47;16.40;47.80
78325;DHT22;67584;51.400;6.692;2023-04-15T09:37:13;16.40;47.50
78325;DHT22;67584;51.400;6.692;2023-04-15T09:39:51;16.50;48.30
78325;DHT22;67584;51.400;6.692;2023-04-15T09:42:17;16.50;47.20
78325;DHT22;67584;51.400;6.692;2023-04-15T09:44:49;16.50;47.20
78325;DHT22;67584;51.400;6.692;2023-04-15T09:47:30;16.70;48.00
78325;DHT22;67584;51.400;6.692;2023-04-15T09:50:00;17.20;46.10
78325;DHT22;67584;51.400;6.692;2023-04-15T09:52:26;18.10;44.60
78325;DHT22;67584;51.400;6.692;2023-04-15T09:54:53;18.30;43.30
78325;DHT22;67584;51.400;6.692;2023-04-15T09:57:21;18.40;43.10
78325;DHT22;67584;51.400;6.692;2023-04-15T09:59:48;18.60;43.60
78325;DHT22;67584;51.400;6.692;2023-04-15T10:02:15;18.50;42.70
78325;DHT22;67584;51.400;6.692;2023-04-15T10:04:43;18.50;43.60
78325;DHT22;67584;51.400;6.692;2023-04-15T10:07:11;18.50;44.10
78325;DHT22;67584;51.400;6.692;2023-04-15T10:09:40;18.70;44.20
78325;DHT22;67584;51.400;6.692;2023-04-15T10:12:07;18.40;43.80
78325;DHT22;67584;51.400;6.692;2023-04-15T10:14:34;18.50;44.10
78325;DHT22;67584;51.400;6.692;2023-04-15T10:17:04;18.50;44.30
78325;DHT22;67584;51.400;6.692;2023-04-15T10:19:35;18.70;43.70
78325;DHT22;67584;51.400;6.692;2023-04-15T10:22:02;18.30;45.00
78325;DHT22;67584;51.400;6.692;2023-04-15T10:24:32;18.60;44.60
78325;DHT22;67584;51.400;6.692;2023-04-15T10:26:59;18.40;44.70
78325;DHT22;67584;51.400;6.692;2023-04-15T10:29:25;18.10;45.70
78325;DHT22;67584;51.400;6.692;2023-04-15T10:31:54;18.00;46.10
78325;DHT22;67584;51.400;6.692;2023-04-15T10:34:22;18.00;45.60
78325;DHT22;67584;51.400;6.692;2023-04-15T10:36:48;17.90;45.70
78325;DHT22;67584;51.400;6.692;2023-04-15T10:42:10;17.70;46.70
78325;DHT22;67584;51.400;6.692;2023-04-15T10:44:57;17.40;48.20
78325;DHT22;67584;51.400;6.692;2023-04-15T10:47:22;17.40;47.40
78325;DHT22;67584;51.400;6.692;2023-04-15T10:49:56;16.70;48.80
78325;DHT22;67584;51.400;6.692;2023-04-15T10:52:24;16.60;49.10
78325;DHT22;67584;51.400;6.692;2023-04-15T10:55:01;16.80;49.30
78325;DHT22;67584;51.400;6.692;2023-04-15T10:57:34;17.10;49.20
78325;DHT22;67584;51.400;6.692;2023-04-15T11:00:10;16.70;48.20
78325;DHT22;67584;51.400;6.692;2023-04-15T11:02:41;16.50;49.00
78325;DHT22;67584;51.400;6.692;2023-04-15T11:05:07;16.30;50.00
78325;DHT22;67584;51.400;6.692;2023-04-15T11:12:39;15.90;51.60
78325;DHT22;67584;51.400;6.692;2023-04-15T11:18:51;15.40;52.30
78325;DHT22;67584;51.400;6.692;2023-04-15T11:21:05;15.00;54.20
78325;DHT22;67584;51.400;6.692;2023-04-15T11:23:38;14.90;54.80
78325;DHT22;67584;51.400;6.692;2023-04-15T11:26:06;14.90;55.00
78325;DHT22;67584;51.400;6.692;2023-04-15T11:28:34;14.70;54.60
78325;DHT22;67584;51.400;6.692;2023-04-15T11:31:11;14.40;56.40
78325;DHT22;67584;51.400;6.692;2023-04-15T11:33:57;14.70;55.10
78325;DHT22;67584;51.400;6.692;2023-04-15T11:36:29;14.90;54.60
78325;DHT22;67584;51.400;6.692;2023-04-15T11:38:57;15.30;53.80
78325;DHT22;67584;51.400;6.692;2023-04-15T11:41:23;15.70;52.60
78325;DHT22;67584;51.400;6.692;2023-04-15T11:43:49;15.90;51.30
78325;DHT22;67584;51.400;6.692;2023-04-15T11:46:15;16.20;50.60
78325;DHT22;67584;51.400;6.692;2023-04-15T11:48:44;16.20;49.80
78325;DHT22;67584;51.400;6.692;2023-04-15T11:51:11;16.10;50.30
78325;DHT22;67584;51.400;6.692;2023-04-15T11:56:04;15.90;51.40
78325;DHT22;67584;51.400;6.692;2023-04-15T11:58:30;16.00;50.70
78325;DHT22;67584;51.400;6.692;2023-04-15T12:00:59;15.90;51.10
78325;DHT22;67584;51.400;6.692;2023-04-15T12:03:29;15.80;51.50
78325;DHT22;67584;51.400;6.692;2023-04-15T12:06:20;15.60;52.10
78325;DHT22;67584;51.400;6.692;2023-04-15T12:11:39;15.40;52.10
78325;DHT22;67584;51.400;6.692;2023-04-15T12:14:06;15.10;52.90
78325;DHT22;67584;51.400;6.692;2023-04-15T12:16:38;14.80;54.40
78325;DHT22;67584;51.400;6.692;2023-04-15T12:19:07;14.60;55.00
78325;DHT22;67584;51.400;6.692;2023-04-15T12:21:37;14.50;55.10
78325;DHT22;67584;51.400;6.692;2023-04-15T12:24:05;14.80;54.30
78325;DHT22;67584;51.400;6.692;2023-04-15T12:26:43;14.70;54.60
78325;DHT22;67584;51.400;6.692;2023-04-15T12:29:10;15.00;54.00
78325;DHT22;67584;51.400;6.692;2023-04-15T12:31:45;15.40;53.00
78325;DHT22;67584;51.400;6.692;2023-04-15T12:34:11;15.30;52.80
78325;DHT22;67584;51.400;6.692;2023-04-15T12:36:36;15.40;53.10
78325;DHT22;67584;51.400;6.692;2023-04-15T12:39:03;15.50;52.40
78325;DHT22;67584;51.400;6.692;2023-04-15T12:41:30;15.70;52.90
78325;DHT22;67584;51.400;6.692;2023-04-15T12:43:56;15.80;52.10
78325;DHT22;67584;51.400;6.692;2023-04-15T12:46:22;15.60;52.10
78325;DHT22;67584;51.400;6.692;2023-04-15T12:48:48;15.70;52.00
78325;DHT22;67584;51.400;6.692;2023-04-15T12:51:14;15.80;51.70
78325;DHT22;67584;51.400;6.692;2023-04-15T12:53:40;15.80;51.50
78325;DHT22;67584;51.400;6.692;2023-04-15T12:56:05;15.50;52.20
78325;DHT22;67584;51.400;6.692;2023-04-15T12:58:31;15.40;52.90
78325;DHT22;67584;51.400;6.692;2023-04-15T13:00:57;15.00;54.60
78325;DHT22;67584;51.400;6.692;2023-04-15T13:03:23;14.50;56.10
78325;DHT22;67584;51.400;6.692;2023-04-15T13:05:49;14.50;56.90
78325;DHT22;67584;51.400;6.692;2023-04-15T13:08:15;14.20;57.20
78325;DHT22;67584;51.400;6.692;2023-04-15T13:10:40;14.20;57.10
78325;DHT22;67584;51.400;6.692;2023-04-15T13:13:07;14.30;56.60
78325;DHT22;67584;51.400;6.692;2023-04-15T13:15:33;14.20;56.90
78325;DHT22;67584;51.400;6.692;2023-04-15T13:17:59;13.90;58.20
78325;DHT22;67584;51.400;6.692;2023-04-15T13:20:24;13.60;59.40
78325;DHT22;67584;51.400;6.692;2023-04-15T13:22:52;13.50;59.80
78325;DHT22;67584;51.400;6.692;2023-04-15T13:25:18;13.70;58.60
78325;DHT22;67584;51.400;6.692;2023-04-15T13:27:44;13.80;57.70
78325;DHT22;67584;51.400;6.692;2023-04-15T13:30:09;13.80;57.50
78325;DHT22;67584;51.400;6.692;2023-04-15T13:32:35;13.70;57.10
78325;DHT22;67584;51.400;6.692;2023-04-15T13:35:01;13.80;57.80
78325;DHT22;67584;51.400;6.692;2023-04-15T13:37:27;13.90;57.30
78325;DHT22;67584;51.400;6.692;2023-04-15T13:39:53;13.90;57.00
78325;DHT22;67584;51.400;6.692;2023-04-15T13:42:19;14.00;57.90
78325;DHT22;67584;51.400;6.692;2023-04-15T13:44:45;14.30;56.90
78325;DHT22;67584;51.400;6.692;2023-04-15T13:47:11;14.10;57.10
78325;DHT22;67584;51.400;6.692;2023-04-15T13:49:37;14.10;58.20
78325;DHT22;67584;51.400;6.692;2023-04-15T13:52:03;13.80;57.50
78325;DHT22;67584;51.400;6.692;2023-04-15T13:54:28;13.80;58.60
78325;DHT22;67584;51.400;6.692;2023-04-15T13:56:54;13.50;59.20
78325;DHT22;67584;51.400;6.692;2023-04-15T13:59:22;13.40;60.00
78325;DHT22;67584;51.400;6.692;2023-04-15T14:01:48;13.40;60.20
78325;DHT22;67584;51.400;6.692;2023-04-15T14:04:14;13.30;60.30
78325;DHT22;67584;51.400;6.692;2023-04-15T14:06:40;13.20;60.70
78325;DHT22;67584;51.400;6.692;2023-04-15T14:09:06;13.30;60.60
78325;DHT22;67584;51.400;6.692;2023-04-15T14:11:31;13.50;60.70
78325;DHT22;67584;51.400;6.692;2023-04-15T14:13:59;13.40;59.90
78325;DHT22;67584;51.400;6.692;2023-04-15T14:16:25;13.20;60.20
78325;DHT22;67584;51.400;6.692;2023-04-15T14:18:51;13.30;61.10
78325;DHT22;67584;51.400;6.692;2023-04-15T14:21:17;13.40;59.70
78325;DHT22;67584;51.400;6.692;2023-04-15T14:23:42;13.60;59.60
78325;DHT22;67584;51.400;6.692;2023-04-15T14:26:08;13.70;58.90
78325;DHT22;67584;51.400;6.692;2023-04-15T14:28:34;13.70;58.80
78325;DHT22;67584;51.400;6.692;2023-04-15T14:31:00;13.80;58.80
78325;DHT22;67584;51.400;6.692;2023-04-15T14:33:26;14.00;58.20
78325;DHT22;67584;51.400;6.692;2023-04-15T14:35:51;13.90;57.90
78325;DHT22;67584;51.400;6.692;2023-04-15T14:38:17;13.70;58.50
78325;DHT22;67584;51.400;6.692;2023-04-15T14:40:43;13.70;58.80
78325;DHT22;67584;51.400;6.692;2023-04-15T14:43:09;13.50;59.00
78325;DHT22;67584;51.400;6.692;2023-04-15T14:45:36;13.40;60.30
78325;DHT22;67584;51.400;6.692;2023-04-15T14:48:02;13.10;61.00
78325;DHT22;67584;51.400;6.692;2023-04-15T14:50:28;13.00;62.50
78325;DHT22;67584;51.400;6.692;2023-04-15T14:52:54;13.00;62.50
78325;DHT22;67584;51.400;6.692;2023-04-15T14:55:20;13.00;62.60
78325;DHT22;67584;51.400;6.692;2023-04-15T14:57:45;13.00;63.10
78325;DHT22;67584;51.400;6.692;2023-04-15T15:00:14;13.00;62.60
78325;DHT22;67584;51.400;6.692;2023-04-15T15:02:41;13.10;62.10
78325;DHT22;67584;51.400;6.692;2023-04-15T15:05:09;13.00;62.40
78325;DHT22;67584;51.400;6.692;2023-04-15T15:07:38;13.20;61.80
78325;DHT22;67584;51.400;6.692;2023-04-15T15:10:05;13.10;61.40
78325;DHT22;67584;51.400;6.692;2023-04-15T15:12:32;13.00;62.10
78325;DHT22;67584;51.400;6.692;2023-04-15T15:14:58;13.00;62.40
78325;DHT22;67584;51.400;6.692;2023-04-15T15:17:23;12.90;62.60
78325;DHT22;67584;51.400;6.692;2023-04-15T15:19:49;12.70;62.90
78325;DHT22;67584;51.400;6.692;2023-04-15T15:22:15;12.50;64.70
78325;DHT22;67584;51.400;6.692;2023-04-15T15:24:41;12.40;64.60
78325;DHT22;67584;51.400;6.692;2023-04-15T15:27:07;12.50;65.40
78325;DHT22;67584;51.400;6.692;2023-04-15T15:29:33;12.50;64.50
78325;DHT22;67584;51.400;6.692;2023-04-15T15:31:59;12.60;65.00
78325;DHT22;67584;51.400;6.692;2023-04-15T15:34:25;12.50;65.10
78325;DHT22;67584;51.400;6.692;2023-04-15T15:36:52;12.20;66.10
78325;DHT22;67584;51.400;6.692;2023-04-15T15:39:18;12.40;66.70
78325;DHT22;67584;51.400;6.692;2023-04-15T15:41:43;12.30;66.30
78325;DHT22;67584;51.400;6.692;2023-04-15T15:44:09;12.60;67.40
78325;DHT22;67584;51.400;6.692;2023-04-15T15:46:35;12.60;66.90
78325;DHT22;67584;51.400;6.692;2023-04-15T15:49:04;12.60;66.30
78325;DHT22;67584;51.400;6.692;2023-04-15T15:51:29;12.60;66.50